Time;durP1;ratioP1;P1;durP2;ratioP2;P2;SDS_P1;SDS_P2;PMS_P1;PMS_P2;Temp;Humidity;BMP_temperature;BMP_pressure;BME280_temperature;BME280_humidity;BME280_pressure;Samples;Min_cycle;Max_cycle;Signal;HPM_P1;HPM_P2
2022/06/08 00:00:29;;;;;;;11.50;8.33;;;13.00;99.90;;;;;;4941396;28;20178;-75
2022/06/08 00:03:18;;;;;;;10.17;8.87;;;13.00;99.90;;;;;;4947851;28;20257;-73
2022/06/08 00:06:02;;;;;;;10.23;8.13;;;13.00;99.90;;;;;;4945857;28;20370;-74
2022/06/08 00:08:47;;;;;;;11.27;8.60;;;12.90;99.90;;;;;;4934697;28;20216;-74
2022/06/08 00:11:31;;;;;;;10.33;9.07;;;12.90;99.90;;;;;;4943832;28;20265;-75
2022/06/08 00:14:16;;;;;;;10.80;8.37;;;12.90;99.90;;;;;;4942521;28;20238;-74
2022/06/08 00:17:00;;;;;;;11.13;8.57;;;12.90;99.90;;;;;;4942974;28;20261;-73
2022/06/08 00:19:45;;;;;;;8.97;8.00;;;12.80;99.90;;;;;;4943085;29;20262;-74
2022/06/08 00:22:29;;;;;;;9.30;7.87;;;12.80;99.90;;;;;;4942420;28;20225;-75
2022/06/08 00:25:14;;;;;;;9.97;8.10;;;12.70;99.90;;;;;;4944603;28;20194;-75
2022/06/08 00:27:58;;;;;;;10.67;8.13;;;12.70;99.90;;;;;;4937104;28;20186;-74
2022/06/08 00:30:43;;;;;;;10.50;7.90;;;12.70;99.90;;;;;;4936470;28;20198;-75
2022/06/08 00:33:27;;;;;;;9.27;7.00;;;12.60;99.90;;;;;;4934065;28;20197;-74
2022/06/08 00:36:12;;;;;;;11.10;8.17;;;12.60;99.90;;;;;;4936793;28;20226;-74
2022/06/08 00:38:56;;;;;;;8.77;7.90;;;12.60;99.90;;;;;;4950130;28;20279;-74
2022/06/08 00:41:51;;;;;;;9.70;7.20;;;12.50;99.90;;;;;;4939928;28;20218;-73
2022/06/08 00:44:44;;;;;;;8.40;7.57;;;12.50;99.90;;;;;;4935674;28;20233;-73
2022/06/08 00:47:34;;;;;;;8.67;7.77;;;12.50;99.90;;;;;;4956079;28;20210;-73
2022/06/08 00:50:21;;;;;;;9.57;7.73;;;12.50;99.90;;;;;;4943116;28;20197;-73
2022/06/08 00:53:05;;;;;;;15.47;8.33;;;12.50;99.90;;;;;;4931865;28;20242;-73
2022/06/08 00:55:50;;;;;;;9.97;7.90;;;12.50;99.90;;;;;;4937779;28;20217;-74
2022/06/08 00:58:36;;;;;;;9.40;7.63;;;12.50;99.90;;;;;;4951186;28;20330;-74
2022/06/08 01:01:20;;;;;;;11.00;7.77;;;12.50;99.90;;;;;;4945574;28;20238;-74
2022/06/08 01:04:07;;;;;;;8.23;7.43;;;12.50;99.90;;;;;;4946700;28;20595;-74
2022/06/08 01:06:55;;;;;;;11.60;8.10;;;12.50;99.90;;;;;;4935328;29;20222;-73
2022/06/08 01:09:40;;;;;;;11.53;8.67;;;12.50;99.90;;;;;;4951873;28;20198;-73
2022/06/08 01:12:24;;;;;;;9.03;8.13;;;12.50;99.90;;;;;;4936915;28;20224;-73
2022/06/08 01:15:14;;;;;;;12.80;8.80;;;12.50;99.90;;;;;;4937755;28;20193;-73
2022/06/08 01:17:58;;;;;;;10.23;8.57;;;12.50;99.90;;;;;;4949394;28;20764;-73
2022/06/08 01:20:49;;;;;;;9.03;8.10;;;12.40;99.90;;;;;;4943807;28;20631;-74
2022/06/08 01:23:33;;;;;;;11.63;8.50;;;12.50;99.90;;;;;;4936568;28;20197;-74
2022/06/08 01:26:22;;;;;;;11.17;8.50;;;12.50;99.90;;;;;;4942100;28;20249;-73
2022/06/08 01:29:27;;;;;;;12.23;8.70;;;12.50;99.90;;;;;;4962740;28;20194;-73
2022/06/08 01:32:36;;;;;;;11.03;8.57;;;12.50;99.90;;;;;;4931578;28;20312;-73
2022/06/08 01:35:44;;;;;;;10.43;8.43;;;12.50;99.90;;;;;;4950875;28;20273;-73
2022/06/08 01:38:56;;;;;;;12.37;8.50;;;12.60;99.90;;;;;;4950338;28;20185;-73
2022/06/08 01:42:02;;;;;;;10.50;8.23;;;12.60;99.90;;;;;;4940741;28;20229;-74
2022/06/08 01:48:31;;;;;;;10.40;9.30;;;12.60;99.90;;;;;;4951608;28;20190;-73
2022/06/08 01:51:34;;;;;;;13.87;8.93;;;12.70;99.90;;;;;;4946993;28;20189;-73
2022/06/08 01:54:28;;;;;;;12.67;8.67;;;12.70;99.90;;;;;;4953918;28;20293;-74
2022/06/08 01:57:15;;;;;;;12.40;9.60;;;12.70;99.90;;;;;;4949853;28;20578;-74
2022/06/08 02:00:19;;;;;;;12.80;9.43;;;12.80;99.90;;;;;;4952906;28;20230;-73
2022/06/08 02:03:25;;;;;;;13.77;10.37;;;12.80;99.90;;;;;;4939057;28;20273;-73
2022/06/08 02:06:30;;;;;;;13.63;10.00;;;12.80;99.90;;;;;;4938648;28;20233;-73
2022/06/08 02:09:40;;;;;;;13.13;8.73;;;12.80;99.90;;;;;;4956229;28;20206;-73
2022/06/08 02:12:26;;;;;;;14.87;10.30;;;12.80;99.90;;;;;;4955967;28;20214;-73
2022/06/08 02:15:19;;;;;;;13.60;10.33;;;12.80;99.90;;;;;;4941025;28;20276;-73
2022/06/08 02:18:09;;;;;;;14.43;10.77;;;12.80;99.90;;;;;;4933537;28;20199;-73
2022/06/08 02:21:01;;;;;;;14.97;9.63;;;12.80;99.90;;;;;;4944110;28;20679;-74
2022/06/08 02:23:54;;;;;;;15.40;9.60;;;12.90;99.90;;;;;;4936805;29;20185;-73
2022/06/08 02:26:41;;;;;;;14.57;10.50;;;12.90;99.90;;;;;;4943069;29;20254;-74
2022/06/08 02:29:36;;;;;;;19.37;10.53;;;12.90;99.90;;;;;;4950618;28;20197;-73
2022/06/08 02:35:43;;;;;;;14.83;10.93;;;13.00;99.90;;;;;;4952199;28;20224;-73
2022/06/08 02:38:35;;;;;;;15.50;10.97;;;13.10;99.90;;;;;;4955586;28;20181;-73
2022/06/08 02:41:21;;;;;;;18.23;10.97;;;13.10;99.90;;;;;;4940927;28;20269;-73
2022/06/08 02:44:11;;;;;;;13.40;10.57;;;13.10;99.90;;;;;;4951519;28;20202;-73
2022/06/08 02:47:10;;;;;;;15.47;11.77;;;13.10;99.90;;;;;;4932542;28;20194;-73
2022/06/08 02:49:54;;;;;;;11.90;10.33;;;13.10;99.90;;;;;;4936510;29;20197;-73
2022/06/08 02:52:41;;;;;;;16.23;11.13;;;13.10;99.90;;;;;;4944990;28;20221;-73
2022/06/08 02:55:37;;;;;;;16.77;11.30;;;13.20;99.90;;;;;;4950034;28;20197;-73
2022/06/08 02:58:30;;;;;;;13.50;11.37;;;13.20;99.90;;;;;;4931470;28;20234;-73
2022/06/08 03:01:25;;;;;;;15.00;11.13;;;13.20;99.90;;;;;;4953104;28;20255;-73
2022/06/08 03:04:19;;;;;;;17.57;11.60;;;13.20;99.90;;;;;;4935140;28;20194;-73
2022/06/08 03:07:11;;;;;;;16.07;12.40;;;13.20;99.90;;;;;;4942035;28;20259;-74
2022/06/08 03:09:59;;;;;;;17.30;13.03;;;13.30;99.90;;;;;;4931502;28;20197;-73
2022/06/08 03:12:56;;;;;;;15.93;13.27;;;13.30;99.90;;;;;;4952435;28;20240;-74
2022/06/08 03:15:42;;;;;;;19.83;13.43;;;13.30;99.90;;;;;;4950233;28;20299;-74
2022/06/08 03:18:26;;;;;;;20.73;15.67;;;13.40;99.90;;;;;;4931324;28;20262;-73
2022/06/08 03:21:11;;;;;;;21.57;16.27;;;13.30;99.90;;;;;;4937980;28;20601;-74
2022/06/08 03:23:56;;;;;;;24.67;15.93;;;13.30;99.90;;;;;;4948409;28;20190;-73
2022/06/08 03:26:45;;;;;;;23.17;16.47;;;13.30;99.90;;;;;;4933086;29;20194;-73
2022/06/08 03:29:31;;;;;;;19.10;15.87;;;13.30;99.90;;;;;;4938216;28;20232;-73
2022/06/08 03:32:14;;;;;;;20.07;15.23;;;13.40;99.90;;;;;;4942301;28;20267;-73
2022/06/08 03:34:58;;;;;;;20.83;15.10;;;13.40;99.90;;;;;;4939523;28;20246;-73
2022/06/08 03:37:43;;;;;;;22.63;16.00;;;13.40;99.90;;;;;;4936290;29;20197;-73
2022/06/08 03:40:27;;;;;;;19.10;15.13;;;13.40;99.90;;;;;;4937164;28;20178;-73
2022/06/08 03:43:12;;;;;;;19.73;15.43;;;13.40;99.90;;;;;;4953138;28;20209;-72
2022/06/08 03:46:00;;;;;;;22.60;14.83;;;13.40;99.90;;;;;;4940168;28;20289;-73
2022/06/08 03:48:45;;;;;;;15.43;12.83;;;13.50;99.90;;;;;;4932910;28;20222;-73
2022/06/08 03:51:30;;;;;;;16.03;13.43;;;13.50;99.90;;;;;;4949300;28;20290;-73
2022/06/08 03:54:19;;;;;;;18.47;13.70;;;13.50;99.90;;;;;;4943001;28;20190;-73
2022/06/08 03:57:07;;;;;;;21.50;16.23;;;13.50;99.90;;;;;;4942063;28;20460;-73
2022/06/08 03:59:52;;;;;;;17.47;13.77;;;13.50;99.90;;;;;;4955738;28;20784;-72
2022/06/08 04:02:36;;;;;;;16.30;12.23;;;13.50;99.90;;;;;;4946896;28;20323;-73
2022/06/08 04:05:21;;;;;;;22.67;12.10;;;13.60;99.90;;;;;;4941343;28;20210;-73
2022/06/08 04:08:05;;;;;;;18.40;12.83;;;13.50;99.90;;;;;;4953774;28;20227;-73
2022/06/08 04:10:50;;;;;;;16.13;12.63;;;13.50;99.90;;;;;;4941724;28;20193;-73
2022/06/08 04:13:34;;;;;;;18.93;12.13;;;13.50;99.90;;;;;;4941910;28;20796;-73
2022/06/08 04:16:19;;;;;;;16.90;12.53;;;13.50;99.90;;;;;;4945507;28;20288;-73
2022/06/08 04:19:04;;;;;;;18.43;13.33;;;13.50;99.90;;;;;;4934595;28;20186;-74
2022/06/08 04:21:48;;;;;;;15.77;13.20;;;13.60;99.90;;;;;;4956948;28;20218;-72
2022/06/08 04:24:32;;;;;;;16.83;12.30;;;13.60;99.90;;;;;;4939259;28;20198;-74
2022/06/08 04:27:17;;;;;;;19.70;15.68;;;13.60;99.90;;;;;;4946609;28;20853;-74
2022/06/08 04:30:01;;;;;;;17.43;14.23;;;13.70;99.90;;;;;;4932568;28;20245;-74
2022/06/08 04:32:45;;;;;;;22.90;13.57;;;13.70;99.90;;;;;;4949379;28;20798;-74
2022/06/08 04:35:29;;;;;;;20.87;17.40;;;13.70;99.90;;;;;;4948576;28;20441;-74
2022/06/08 04:38:14;;;;;;;16.63;13.50;;;13.80;99.90;;;;;;4928324;28;20225;-74
2022/06/08 04:40:58;;;;;;;16.30;13.27;;;13.80;99.90;;;;;;4934927;28;20187;-74
2022/06/08 04:43:42;;;;;;;20.47;13.77;;;13.80;99.90;;;;;;4946099;28;20195;-74
2022/06/08 04:46:27;;;;;;;19.53;13.17;;;13.80;99.90;;;;;;4935836;28;20194;-74
2022/06/08 04:49:11;;;;;;;21.40;17.37;;;13.80;99.90;;;;;;4949472;28;20466;-74
2022/06/08 04:51:55;;;;;;;20.40;15.10;;;13.90;99.90;;;;;;4946084;28;20237;-74
2022/06/08 04:54:39;;;;;;;20.40;14.47;;;13.90;99.90;;;;;;4940586;29;20219;-74
2022/06/08 04:57:23;;;;;;;20.63;14.60;;;13.90;99.90;;;;;;4941789;28;20209;-74
2022/06/08 05:00:11;;;;;;;16.73;13.70;;;13.90;99.90;;;;;;4952708;28;20229;-74
2022/06/08 05:02:55;;;;;;;17.83;14.17;;;14.00;99.90;;;;;;4943690;28;20221;-73
2022/06/08 05:05:40;;;;;;;23.42;18.50;;;14.00;99.90;;;;;;4939710;28;20430;-74
2022/06/08 05:08:25;;;;;;;18.27;14.80;;;14.10;99.90;;;;;;4939620;28;20210;-74
2022/06/08 05:11:09;;;;;;;20.33;15.17;;;14.10;99.90;;;;;;4951562;28;20194;-73
2022/06/08 05:13:54;;;;;;;23.73;15.00;;;14.10;99.90;;;;;;4948933;28;20190;-74
2022/06/08 05:16:38;;;;;;;22.40;15.30;;;14.10;99.90;;;;;;4937804;29;20257;-74
2022/06/08 05:19:23;;;;;;;25.33;19.70;;;14.20;99.90;;;;;;4935956;28;20420;-74
2022/06/08 05:22:06;;;;;;;26.15;20.75;;;14.20;99.90;;;;;;4948410;28;20412;-74
2022/06/08 05:24:50;;;;;;;21.43;17.60;;;14.30;99.90;;;;;;4948187;28;20199;-74
2022/06/08 05:27:34;;;;;;;22.30;17.83;;;14.30;99.90;;;;;;4946403;28;20270;-74
2022/06/08 05:30:19;;;;;;;25.23;18.37;;;14.40;99.90;;;;;;4931328;28;20674;-73
2022/06/08 05:33:04;;;;;;;24.93;18.27;;;14.40;99.90;;;;;;4933953;28;20215;-73
2022/06/08 05:35:48;;;;;;;25.00;18.97;;;14.50;99.90;;;;;;4941747;28;20217;-72
2022/06/08 05:38:32;;;;;;;27.70;19.60;;;14.50;99.90;;;;;;4935639;28;20194;-72
2022/06/08 05:41:17;;;;;;;27.00;21.37;;;14.60;99.90;;;;;;4931914;28;20197;-73
2022/06/08 05:44:01;;;;;;;32.03;21.50;;;14.60;99.90;;;;;;4952912;28;20213;-72
2022/06/08 05:46:45;;;;;;;28.77;21.63;;;14.70;99.90;;;;;;4938223;28;20205;-72
2022/06/08 05:49:34;;;;;;;27.63;21.53;;;14.80;99.90;;;;;;4950658;28;20329;-72
2022/06/08 05:52:19;;;;;;;31.37;22.33;;;14.90;99.90;;;;;;4941845;28;20268;-72
2022/06/08 05:55:04;;;;;;;28.40;22.70;;;14.90;99.90;;;;;;4953907;28;20718;-73
2022/06/08 05:57:48;;;;;;;29.07;21.93;;;15.00;99.90;;;;;;4946238;28;20266;-73
2022/06/08 06:00:36;;;;;;;31.80;24.93;;;15.00;99.90;;;;;;4933194;28;20194;-73
2022/06/08 06:03:21;;;;;;;36.40;25.17;;;15.10;99.90;;;;;;4932224;28;20213;-73
2022/06/08 06:06:05;;;;;;;33.87;24.77;;;15.20;99.90;;;;;;4938913;28;20221;-73
2022/06/08 06:08:51;;;;;;;36.20;25.23;;;15.20;99.90;;;;;;4937314;28;20199;-73
2022/06/08 06:11:35;;;;;;;36.00;31.13;;;15.30;99.90;;;;;;4940042;28;20417;-73
2022/06/08 06:14:20;;;;;;;35.07;28.13;;;15.40;99.90;;;;;;4939395;28;20232;-73
2022/06/08 06:17:04;;;;;;;36.10;27.00;;;15.40;99.90;;;;;;4930540;28;20221;-72
2022/06/08 06:19:49;;;;;;;31.63;25.93;;;15.50;99.90;;;;;;4939185;28;20190;-73
2022/06/08 06:22:35;;;;;;;37.90;27.67;;;15.60;99.90;;;;;;4932795;28;20216;-73
2022/06/08 06:25:19;;;;;;;35.23;28.00;;;15.80;99.90;;;;;;4954880;28;20198;-74
2022/06/08 06:28:03;;;;;;;35.83;27.67;;;15.80;99.90;;;;;;4945971;28;20286;-73
2022/06/08 06:30:48;;;;;;;36.80;28.97;;;15.90;99.90;;;;;;4936111;28;20194;-73
2022/06/08 06:33:33;;;;;;;35.87;27.77;;;16.00;99.90;;;;;;4946274;28;20654;-73
2022/06/08 06:36:16;;;;;;;41.53;28.97;;;16.10;99.90;;;;;;4936556;28;20277;-73
2022/06/08 06:39:01;;;;;;;36.10;27.73;;;16.20;99.90;;;;;;4950066;28;20190;-73
2022/06/08 06:41:46;;;;;;;37.07;28.03;;;16.30;99.90;;;;;;4940524;28;20265;-73
2022/06/08 06:44:30;;;;;;;36.83;27.10;;;16.30;99.90;;;;;;4954661;28;20190;-73
2022/06/08 06:47:14;;;;;;;37.87;27.10;;;16.40;99.90;;;;;;4937382;28;20274;-73
2022/06/08 06:49:58;;;;;;;32.87;26.70;;;16.50;99.90;;;;;;4945147;28;20238;-73
2022/06/08 06:52:44;;;;;;;34.17;24.83;;;16.60;99.90;;;;;;4936452;28;20278;-73
2022/06/08 06:55:31;;;;;;;30.20;24.63;;;16.80;99.90;;;;;;4929633;28;20278;-73
2022/06/08 06:58:16;;;;;;;27.37;20.50;;;16.90;99.90;;;;;;4948264;28;20233;-73
2022/06/08 07:01:01;;;;;;;28.37;21.20;;;17.00;99.90;;;;;;4946164;28;20628;-73
2022/06/08 07:03:46;;;;;;;27.63;21.20;;;17.00;99.90;;;;;;4951790;28;20190;-74
2022/06/08 07:06:30;;;;;;;27.40;20.93;;;17.10;99.90;;;;;;4938159;28;20280;-73
2022/06/08 07:09:14;;;;;;;26.30;18.40;;;17.20;99.90;;;;;;4935863;28;20234;-73
2022/06/08 07:11:58;;;;;;;22.60;16.37;;;17.30;99.90;;;;;;4937524;28;20217;-73
2022/06/08 07:14:43;;;;;;;19.93;16.47;;;17.30;99.90;;;;;;4948189;28;20219;-73
2022/06/08 07:17:27;;;;;;;23.90;17.43;;;17.40;99.90;;;;;;4946419;28;20339;-73
2022/06/08 07:20:12;;;;;;;20.97;16.60;;;17.50;99.90;;;;;;4935836;28;20206;-73
2022/06/08 07:22:56;;;;;;;20.00;15.83;;;17.60;99.90;;;;;;4938210;28;20225;-73
2022/06/08 07:25:40;;;;;;;20.90;16.47;;;17.60;99.90;;;;;;4934943;28;20193;-73
2022/06/08 07:28:25;;;;;;;21.33;15.70;;;17.70;99.90;;;;;;4962710;28;20657;-73
2022/06/08 07:31:11;;;;;;;15.53;12.23;;;17.70;99.90;;;;;;4932233;28;20260;-73
2022/06/08 07:33:56;;;;;;;13.60;11.20;;;17.80;99.90;;;;;;4945777;28;20263;-73
2022/06/08 07:36:41;;;;;;;11.97;10.50;;;18.00;99.90;;;;;;4937456;28;20606;-75
2022/06/08 07:39:26;;;;;;;15.17;12.13;;;18.00;99.90;;;;;;4932964;28;20202;-75
2022/06/08 07:42:10;;;;;;;12.60;10.70;;;18.10;99.90;;;;;;4940292;28;20205;-75
2022/06/08 07:44:54;;;;;;;11.77;10.00;;;18.10;99.90;;;;;;4950972;28;20273;-75
2022/06/08 07:50:43;;;;;;;11.23;8.07;;;18.20;99.90;;;;;;4955940;28;20543;-74
2022/06/08 07:53:27;;;;;;;9.53;7.37;;;18.30;99.90;;;;;;4930320;28;20284;-75
2022/06/08 07:56:11;;;;;;;9.30;7.20;;;18.40;99.90;;;;;;4937716;28;20257;-75
2022/06/08 07:58:56;;;;;;;8.73;7.73;;;18.50;99.90;;;;;;4954545;28;20190;-75
2022/06/08 08:01:40;;;;;;;11.10;8.43;;;18.60;99.90;;;;;;4953878;28;20238;-74
2022/06/08 08:04:25;;;;;;;12.63;9.52;;;18.70;99.90;;;;;;4936231;28;20182;-75
2022/06/08 08:07:09;;;;;;;11.63;9.38;;;18.70;99.90;;;;;;4941446;28;20233;-74
2022/06/08 08:09:54;;;;;;;10.60;9.50;;;18.80;99.90;;;;;;4953392;28;20198;-74
2022/06/08 08:12:38;;;;;;;13.40;10.00;;;18.80;99.90;;;;;;4959317;28;20236;-75
2022/06/08 08:15:24;;;;;;;10.73;9.30;;;18.90;99.90;;;;;;4952097;28;20197;-76
2022/06/08 08:18:08;;;;;;;10.77;8.70;;;18.90;99.90;;;;;;4947185;28;20282;-75
2022/06/08 08:20:53;;;;;;;9.50;8.48;;;19.10;99.90;;;;;;4957197;28;20191;-76
2022/06/08 08:23:37;;;;;;;8.15;7.35;;;19.10;99.90;;;;;;4940660;28;20182;-76
2022/06/08 08:26:21;;;;;;;10.07;8.55;;;19.20;99.90;;;;;;4937627;28;20246;-76
2022/06/08 08:29:06;;;;;;;8.88;7.60;;;19.20;99.90;;;;;;4934698;28;20595;-76
2022/06/08 08:31:50;;;;;;;9.93;6.20;;;19.20;99.90;;;;;;4946533;28;20281;-77
2022/06/08 08:34:34;;;;;;;8.60;7.25;;;19.20;99.90;;;;;;4942462;28;20209;-76
2022/06/08 08:37:19;;;;;;;8.98;7.65;;;19.20;99.90;;;;;;4951152;28;20201;-76
2022/06/08 08:40:05;;;;;;;10.10;8.05;;;19.20;99.90;;;;;;4942061;28;20182;-77
2022/06/08 08:42:49;;;;;;;9.07;7.70;;;19.30;99.90;;;;;;4944604;28;20218;-77
2022/06/08 08:45:56;;;;;;;10.55;8.18;;;19.30;99.90;;;;;;4950910;28;20190;-76
2022/06/08 08:48:51;;;;;;;10.15;8.07;;;19.30;99.90;;;;;;4931680;28;20190;-77
2022/06/08 08:51:43;;;;;;;13.73;8.98;;;19.30;99.90;;;;;;4932535;28;20218;-77
2022/06/08 08:54:38;;;;;;;12.63;7.07;;;19.30;99.90;;;;;;4937581;28;20186;-77
2022/06/08 08:57:55;;;;;;;9.73;5.90;;;19.30;99.90;;;;;;4931870;28;20261;-75
2022/06/08 09:00:49;;;;;;;7.90;5.05;;;19.30;99.90;;;;;;4954883;28;20186;-76
2022/06/08 09:03:42;;;;;;;6.63;5.50;;;19.40;99.90;;;;;;4939277;28;20198;-76
2022/06/08 09:06:32;;;;;;;6.68;5.20;;;19.50;99.90;;;;;;4942319;28;20317;-75
2022/06/08 09:09:23;;;;;;;5.75;4.80;;;19.60;99.90;;;;;;4934996;28;20209;-75
2022/06/08 09:12:12;;;;;;;5.63;4.90;;;19.70;99.90;;;;;;4934899;28;20247;-75
2022/06/08 09:15:00;;;;;;;6.85;5.25;;;19.90;99.90;;;;;;4939940;28;20194;-75
2022/06/08 09:17:56;;;;;;;8.70;5.43;;;19.90;99.90;;;;;;4940475;28;20229;-76
2022/06/08 09:20:40;;;;;;;5.70;4.78;;;19.90;99.90;;;;;;4954396;28;20204;-76
2022/06/08 09:23:43;;;;;;;6.32;5.15;;;19.90;99.90;;;;;;4941476;28;20265;-76
2022/06/08 09:26:34;;;;;;;6.00;4.82;;;20.00;99.90;;;;;;4931313;28;20297;-76
2022/06/08 09:29:26;;;;;;;8.10;4.78;;;20.20;99.90;;;;;;4951721;28;20194;-75
2022/06/08 09:32:26;;;;;;;6.93;4.82;;;20.30;99.90;;;;;;4939463;28;20213;-75
2022/06/08 09:35:30;;;;;;;6.60;5.00;;;20.30;99.90;;;;;;4949053;28;20250;-76
2022/06/08 09:38:15;;;;;;;5.95;5.07;;;20.40;99.90;;;;;;4946970;28;20208;-75
2022/06/08 09:41:16;;;;;;;6.00;4.68;;;20.50;99.90;;;;;;4943478;28;20250;-75
2022/06/08 09:44:23;;;;;;;5.38;4.68;;;20.70;99.90;;;;;;4959399;28;20246;-75
2022/06/08 09:53:57;;;;;;;5.70;4.60;;;20.80;99.90;;;;;;4953262;28;20190;-75
2022/06/08 09:56:52;;;;;;;7.97;5.63;;;20.80;99.90;;;;;;4956796;28;20241;-75
2022/06/08 10:00:02;;;;;;;6.95;4.97;;;20.80;99.90;;;;;;4950867;28;20564;-75
2022/06/08 10:03:14;;;;;;;6.80;4.95;;;20.90;99.90;;;;;;4953805;28;20225;-75
2022/06/08 10:06:26;;;;;;;6.00;4.80;;;21.00;99.90;;;;;;4940879;28;20225;-76
2022/06/08 10:09:58;;;;;;;7.53;4.68;;;21.10;99.90;;;;;;4951946;28;20215;-76
2022/06/08 10:12:59;;;;;;;6.35;4.88;;;21.20;99.90;;;;;;4856552;29;20230;-78
2022/06/08 10:15:48;;;;;;;4.60;4.15;;;21.10;99.90;;;;;;4937906;29;20246;-75
2022/06/08 10:18:46;;;;;;;5.45;4.10;;;21.20;99.90;;;;;;4933682;28;20534;-75
2022/06/08 10:21:34;;;;;;;6.25;4.78;;;21.20;99.90;;;;;;4931142;28;20214;-76
2022/06/08 10:24:27;;;;;;;6.13;4.25;;;21.20;99.90;;;;;;4958351;28;20290;-75
2022/06/08 10:27:16;;;;;;;10.15;4.60;;;21.20;99.90;;;;;;4953031;28;20201;-76
2022/06/08 10:30:13;;;;;;;8.38;4.95;;;21.20;99.90;;;;;;4950168;28;20198;-76
2022/06/08 10:33:05;;;;;;;5.75;4.40;;;21.30;99.90;;;;;;4951327;28;20214;-76
2022/06/08 10:35:55;;;;;;;5.65;4.20;;;21.30;99.90;;;;;;4928718;29;20246;-76
2022/06/08 10:38:44;;;;;;;8.00;4.28;;;21.40;99.90;;;;;;4940982;28;20177;-76
2022/06/08 10:44:43;;;;;;;8.32;4.80;;;21.40;99.90;;;;;;4950357;28;20194;-75
2022/06/08 10:47:29;;;;;;;6.53;4.78;;;21.40;99.90;;;;;;4946602;28;20185;-75
2022/06/08 10:50:27;;;;;;;7.32;5.05;;;21.40;99.90;;;;;;4949079;28;20193;-76
2022/06/08 10:56:26;;;;;;;6.07;5.20;;;21.50;99.90;;;;;;4947490;28;20253;-75
2022/06/08 10:59:18;;;;;;;6.47;5.13;;;21.50;99.90;;;;;;4940450;28;20262;-75
2022/06/08 11:02:10;;;;;;;6.20;5.38;;;21.50;99.90;;;;;;4934729;28;20242;-75
2022/06/08 11:05:15;;;;;;;5.72;5.13;;;21.50;99.90;;;;;;4949834;28;20278;-73
2022/06/08 11:08:04;;;;;;;6.35;5.50;;;21.50;99.90;;;;;;4947469;28;20253;-75
2022/06/08 11:10:50;;;;;;;6.03;5.05;;;21.60;99.90;;;;;;4951087;28;20190;-76
2022/06/08 11:13:38;;;;;;;11.90;4.78;;;21.50;99.90;;;;;;4947493;28;20194;-76
2022/06/08 11:16:28;;;;;;;5.57;4.22;;;21.50;99.90;;;;;;4952052;28;20306;-75
2022/06/08 11:19:17;;;;;;;4.85;4.35;;;21.50;99.90;;;;;;4942334;28;20265;-75
2022/06/08 11:22:10;;;;;;;7.05;4.53;;;21.60;99.90;;;;;;4956303;28;20946;-76
2022/06/08 11:25:00;;;;;;;7.25;4.53;;;21.60;99.90;;;;;;4933023;28;20195;-76
2022/06/08 11:27:44;;;;;;;4.28;3.35;;;21.50;99.90;;;;;;4939527;29;20197;-76
2022/06/08 11:30:37;;;;;;;7.45;3.50;;;21.50;99.90;;;;;;4943847;28;20332;-76
2022/06/08 11:33:22;;;;;;;7.05;3.47;;;21.50;99.90;;;;;;4949331;28;20217;-75
2022/06/08 11:36:16;;;;;;;2.97;2.70;;;21.60;99.90;;;;;;4948544;28;20216;-75
2022/06/08 11:39:29;;;;;;;3.33;2.30;;;21.70;99.90;;;;;;4939255;28;20528;-76
2022/06/08 11:42:27;;;;;;;2.30;2.10;;;21.70;99.90;;;;;;4955545;28;20261;-76
2022/06/08 11:45:16;;;;;;;5.57;2.85;;;21.80;99.90;;;;;;4939183;28;20209;-76
2022/06/08 11:48:13;;;;;;;4.40;2.63;;;21.90;99.90;;;;;;4948063;28;20219;-76
2022/06/08 11:51:00;;;;;;;4.63;2.42;;;22.00;99.90;;;;;;4953919;28;20193;-76
2022/06/08 11:53:44;;;;;;;3.08;2.22;;;22.10;99.90;;;;;;4933606;29;20310;-76
2022/06/08 11:57:01;;;;;;;3.20;2.10;;;22.10;99.90;;;;;;4934872;28;20217;-75
2022/06/08 11:59:46;;;;;;;1.98;1.88;;;22.20;99.90;;;;;;4935102;29;20197;-76
2022/06/08 12:02:38;;;;;;;1.92;1.65;;;22.10;99.90;;;;;;4935756;28;20583;-76
2022/06/08 12:05:27;;;;;;;2.40;1.60;;;22.10;99.90;;;;;;4934633;28;20210;-76
2022/06/08 12:08:29;;;;;;;3.15;1.98;;;22.00;99.90;;;;;;4936165;28;20237;-75
2022/06/08 12:11:17;;;;;;;2.83;1.42;;;21.90;99.90;;;;;;4933775;28;20182;-76
2022/06/08 12:14:28;;;;;;;3.85;1.40;;;21.90;99.90;;;;;;4950051;28;20194;-76
2022/06/08 12:17:12;;;;;;;7.30;1.38;;;21.90;99.90;;;;;;4952969;28;20698;-76
2022/06/08 12:19:58;;;;;;;4.07;1.55;;;21.80;99.90;;;;;;4957112;28;20194;-76
2022/06/08 12:22:52;;;;;;;5.78;2.42;;;21.80;99.90;;;;;;4936039;28;20729;-75
2022/06/08 12:25:37;;;;;;;6.00;2.38;;;21.60;99.90;;;;;;4938960;28;20301;-75
2022/06/08 12:28:23;;;;;;;3.72;2.33;;;21.40;99.90;;;;;;4938406;28;20254;-75
2022/06/08 12:31:26;;;;;;;3.58;2.28;;;21.10;99.90;;;;;;4952794;28;20246;-75
2022/06/08 12:34:48;;;;;;;4.20;2.78;;;20.80;99.90;;;;;;4949104;28;20190;-76
2022/06/08 12:37:43;;;;;;;2.13;2.03;;;20.70;99.90;;;;;;4954632;28;20262;-75
2022/06/08 12:40:31;;;;;;;5.35;2.95;;;20.60;99.90;;;;;;4934115;28;20734;-75
2022/06/08 12:43:18;;;;;;;3.67;2.80;;;20.50;99.90;;;;;;4952004;28;20265;-75
2022/06/08 12:46:26;;;;;;;2.78;2.58;;;20.40;99.90;;;;;;4933420;28;20210;-74
2022/06/08 12:49:16;;;;;;;4.57;2.80;;;20.40;99.90;;;;;;4951991;28;20347;-75
2022/06/08 12:52:00;;;;;;;3.40;2.60;;;20.40;99.90;;;;;;4954518;28;20297;-75
2022/06/08 12:54:45;;;;;;;7.18;2.92;;;20.40;99.90;;;;;;4948526;28;20266;-74
2022/06/08 12:57:31;;;;;;;3.33;2.33;;;20.30;99.90;;;;;;4949572;28;20311;-75
2022/06/08 13:00:20;;;;;;;6.18;2.75;;;20.30;99.90;;;;;;4940023;28;20190;-74
2022/06/08 13:03:18;;;;;;;5.13;2.15;;;20.40;99.90;;;;;;4944816;28;20269;-75
2022/06/08 13:06:03;;;;;;;3.55;2.65;;;20.30;99.90;;;;;;4953673;28;20297;-75
2022/06/08 13:08:49;;;;;;;9.55;2.92;;;20.40;99.90;;;;;;4949120;28;20202;-76
2022/06/08 13:11:34;;;;;;;5.43;2.47;;;20.50;99.90;;;;;;4928076;28;20277;-74
2022/06/08 13:14:20;;;;;;;3.08;2.00;;;20.50;99.90;;;;;;4932074;28;20190;-76
2022/06/08 13:17:05;;;;;;;4.13;1.98;;;20.60;99.90;;;;;;4928504;28;20206;-75
2022/06/08 13:19:49;;;;;;;3.53;1.70;;;20.60;99.90;;;;;;4947764;28;20250;-76
2022/06/08 13:22:33;;;;;;;4.50;1.85;;;20.70;99.90;;;;;;4933952;28;20635;-75
2022/06/08 13:25:21;;;;;;;3.67;1.90;;;20.80;99.90;;;;;;4934605;28;20225;-75
2022/06/08 13:28:21;;;;;;;3.10;1.70;;;20.90;99.90;;;;;;4939381;28;20185;-75
2022/06/08 13:31:09;;;;;;;2.70;1.77;;;20.90;99.90;;;;;;4934398;28;20190;-75
2022/06/08 13:33:56;;;;;;;2.92;1.40;;;21.00;99.90;;;;;;4931873;28;20218;-75
2022/06/08 13:36:40;;;;;;;4.10;1.38;;;21.10;99.90;;;;;;4931353;28;20270;-75
2022/06/08 13:39:31;;;;;;;3.08;1.40;;;21.20;99.90;;;;;;4945878;28;20263;-75
2022/06/08 13:42:17;;;;;;;3.80;1.70;;;21.30;99.90;;;;;;4952668;28;20289;-75
2022/06/08 13:45:03;;;;;;;2.95;1.92;;;21.40;99.90;;;;;;4932423;28;20321;-75
2022/06/08 13:47:53;;;;;;;3.65;1.40;;;21.50;99.90;;;;;;4947217;28;20205;-75
2022/06/08 13:50:40;;;;;;;2.42;1.75;;;21.40;99.90;;;;;;4936583;28;20239;-75
2022/06/08 13:53:30;;;;;;;2.55;1.70;;;21.40;99.90;;;;;;4931291;28;20244;-76
2022/06/08 13:56:16;;;;;;;2.72;1.65;;;21.50;99.90;;;;;;4940909;28;20702;-76
2022/06/08 13:59:00;;;;;;;3.75;2.10;;;21.50;99.90;;;;;;4928931;28;20202;-76
2022/06/08 14:01:46;;;;;;;2.60;2.40;;;21.40;99.90;;;;;;4935849;28;20225;-75
2022/06/08 14:04:31;;;;;;;4.05;2.38;;;21.20;99.90;;;;;;4930265;28;20190;-75
2022/06/08 14:13:30;;;;;;;3.42;1.67;;;20.50;99.90;;;;;;4950389;28;20241;-76
2022/06/08 14:16:14;;;;;;;3.03;1.80;;;20.40;99.90;;;;;;4932865;28;20714;-75
2022/06/08 14:19:01;;;;;;;2.10;1.38;;;20.30;99.90;;;;;;4935760;28;20185;-75
2022/06/08 14:21:46;;;;;;;1.10;1.00;;;20.30;99.90;;;;;;4937557;29;20245;-75
2022/06/08 14:24:41;;;;;;;4.32;1.17;;;20.20;99.90;;;;;;4936234;28;20262;-75
2022/06/08 14:27:25;;;;;;;2.33;0.93;;;20.10;99.90;;;;;;4930955;28;20245;-75
2022/06/08 14:30:13;;;;;;;3.42;0.88;;;20.10;99.90;;;;;;4935987;28;20194;-75
2022/06/08 14:33:00;;;;;;;1.40;0.80;;;20.10;99.90;;;;;;4931178;28;20233;-75
2022/06/08 14:35:48;;;;;;;1.65;1.00;;;20.20;99.90;;;;;;4931328;29;20318;-75
2022/06/08 14:38:35;;;;;;;2.08;0.90;;;20.10;99.90;;;;;;4936625;28;20657;-75
2022/06/08 14:41:19;;;;;;;0.85;0.80;;;20.20;99.90;;;;;;4934603;28;20193;-76
2022/06/08 14:44:15;;;;;;;0.98;0.88;;;20.30;99.90;;;;;;4933287;28;20190;-75
2022/06/08 14:47:07;;;;;;;1.17;0.68;;;20.30;99.90;;;;;;4949347;28;20186;-76
2022/06/08 14:49:51;;;;;;;1.88;0.80;;;20.30;99.90;;;;;;4950210;28;20233;-75
2022/06/08 14:52:35;;;;;;;1.00;0.80;;;20.40;99.90;;;;;;4945422;28;20220;-75
2022/06/08 14:58:24;;;;;;;1.52;0.93;;;20.60;99.90;;;;;;4941640;28;20189;-75
2022/06/08 15:01:16;;;;;;;2.42;0.98;;;20.60;99.90;;;;;;4930741;28;20212;-75